Pagrindinis puslapis
METAR-TAF:

METAR-TAF

Oro uostai :

Gökçeada, Turkija

platuma: 40-12-04N, ilguma: 25-52-56E, Aukštis: 22 m

METAR: trūkstamas

Laikas: 13:43 (10:43 UTC)

Prognozė

Ataskaita buvo paskelbta 3 valandos ir 3 minutes, ne 07:40 UTC
Prognozė galioja nuo 28 metu 09 UTC su 28 metu 18 UTC
Vėjas 15 kt iš Pietvakarių
Matomumas 10 km arba daugiau
Išsisklaidę debesys ne aukštis 2000 ft
Su prošvaistėmis ne aukštis 8000 ft

TAF: LTFK 280740Z 2809/2818 22015KT 9999 SCT020 BKN080

Orai ataskaitas ir orų prognozės (METAR, TAF).

turimą stotys yra geltonos ir raudonos taškus žemėlapyje.

Perkelti pele per norėdami pamatyti stoties vardą.

Tada spustelėkite, norėdami matyti oro stebėjimo ir prognozės.

Norėdami pakeisti žemėlapį: spustelėkite ant žalios mygtukų su juodo kryžiaus žemyn,; žalią mygtuką su brūkšneliu, jei norite nutolinti; arba žalių rodyklių gretimoms žemėlapius.


METAR-TAF: